sensor_id;sensor_type;location;lat;lon;timestamp;pressure;altitude;pressure_sealevel;temperature;humidity
68525;BME280;55524;51.380;13.372;2023-03-08T00:00:18;98931.28;;;-0.55;100.00
68525;BME280;55524;51.380;13.372;2023-03-08T00:02:45;98933.84;;;-0.54;100.00
68525;BME280;55524;51.380;13.372;2023-03-08T00:05:12;98925.31;;;-0.59;100.00
68525;BME280;55524;51.380;13.372;2023-03-08T00:07:38;98933.94;;;-0.60;100.00
68525;BME280;55524;51.380;13.372;2023-03-08T00:10:05;98932.28;;;-0.62;100.00
68525;BME280;55524;51.380;13.372;2023-03-08T00:12:31;98935.75;;;-0.63;100.00
68525;BME280;55524;51.380;13.372;2023-03-08T00:14:58;98938.41;;;-0.66;100.00
68525;BME280;55524;51.380;13.372;2023-03-08T00:17:24;98943.59;;;-0.66;100.00
68525;BME280;55524;51.380;13.372;2023-03-08T00:19:51;98955.66;;;-0.65;100.00
68525;BME280;55524;51.380;13.372;2023-03-08T00:22:18;98945.31;;;-0.67;100.00
68525;BME280;55524;51.380;13.372;2023-03-08T00:24:44;98957.38;;;-0.64;100.00
68525;BME280;55524;51.380;13.372;2023-03-08T00:27:10;98952.19;;;-0.63;100.00
68525;BME280;55524;51.380;13.372;2023-03-08T00:29:37;98942.66;;;-0.64;100.00
68525;BME280;55524;51.380;13.372;2023-03-08T00:32:03;98948.72;;;-0.63;100.00
68525;BME280;55524;51.380;13.372;2023-03-08T00:34:29;98933.09;;;-0.60;100.00
68525;BME280;55524;51.380;13.372;2023-03-08T00:36:56;98928.84;;;-0.63;100.00
68525;BME280;55524;51.380;13.372;2023-03-08T00:39:22;98932.19;;;-0.58;100.00
68525;BME280;55524;51.380;13.372;2023-03-08T00:41:48;98951.31;;;-0.63;100.00
68525;BME280;55524;51.380;13.372;2023-03-08T00:44:14;98950.50;;;-0.67;100.00
68525;BME280;55524;51.380;13.372;2023-03-08T00:46:41;98953.84;;;-0.60;100.00
68525;BME280;55524;51.380;13.372;2023-03-08T00:49:13;98955.63;;;-0.64;100.00
68525;BME280;55524;51.380;13.372;2023-03-08T00:51:39;98948.78;;;-0.68;100.00
68525;BME280;55524;51.380;13.372;2023-03-08T00:54:06;98950.56;;;-0.71;100.00
68525;BME280;55524;51.380;13.372;2023-03-08T00:56:32;98955.75;;;-0.71;100.00
68525;BME280;55524;51.380;13.372;2023-03-08T00:58:58;98954.09;;;-0.74;100.00
68525;BME280;55524;51.380;13.372;2023-03-08T01:01:25;98960.13;;;-0.73;100.00
68525;BME280;55524;51.380;13.372;2023-03-08T01:03:51;98955.75;;;-0.71;100.00
68525;BME280;55524;51.380;13.372;2023-03-08T01:06:18;98955.75;;;-0.71;100.00
68525;BME280;55524;51.380;13.372;2023-03-08T01:08:46;98958.34;;;-0.71;100.00
68525;BME280;55524;51.380;13.372;2023-03-08T01:11:30;98959.22;;;-0.72;100.00
68525;BME280;55524;51.380;13.372;2023-03-08T01:13:58;98970.44;;;-0.72;100.00
68525;BME280;55524;51.380;13.372;2023-03-08T01:16:29;98959.22;;;-0.72;100.00
68525;BME280;55524;51.380;13.372;2023-03-08T01:18:57;98968.72;;;-0.71;100.00
68525;BME280;55524;51.380;13.372;2023-03-08T01:21:25;98971.31;;;-0.71;100.00
68525;BME280;55524;51.380;13.372;2023-03-08T01:23:51;98974.78;;;-0.71;100.00
68525;BME280;55524;51.380;13.372;2023-03-08T01:26:23;98975.63;;;-0.70;100.00
68525;BME280;55524;51.380;13.372;2023-03-08T01:28:50;98976.50;;;-0.71;100.00
68525;BME280;55524;51.380;13.372;2023-03-08T01:31:19;98969.59;;;-0.71;100.00
68525;BME280;55524;51.380;13.372;2023-03-08T01:33:46;98974.78;;;-0.72;100.00
68525;BME280;55524;51.380;13.372;2023-03-08T01:36:15;98961.81;;;-0.71;100.00
68525;BME280;55524;51.380;13.372;2023-03-08T01:38:43;98973.09;;;-0.73;100.00
68525;BME280;55524;51.380;13.372;2023-03-08T01:41:21;98976.50;;;-0.70;100.00
68525;BME280;55524;51.380;13.372;2023-03-08T01:43:49;98983.38;;;-0.69;100.00
68525;BME280;55524;51.380;13.372;2023-03-08T01:46:32;98979.94;;;-0.69;100.00
68525;BME280;55524;51.380;13.372;2023-03-08T01:51:57;98979.97;;;-0.71;100.00
68525;BME280;55524;51.380;13.372;2023-03-08T01:56:57;98983.47;;;-0.73;100.00
68525;BME280;55524;51.380;13.372;2023-03-08T01:59:24;98980.88;;;-0.73;100.00
68525;BME280;55524;51.380;13.372;2023-03-08T02:01:52;98986.00;;;-0.70;100.00
68525;BME280;55524;51.380;13.372;2023-03-08T02:04:18;98982.59;;;-0.74;100.00
68525;BME280;55524;51.380;13.372;2023-03-08T02:06:45;98986.97;;;-0.78;100.00
68525;BME280;55524;51.380;13.372;2023-03-08T02:09:12;98990.47;;;-0.80;100.00
68525;BME280;55524;51.380;13.372;2023-03-08T02:11:39;98985.28;;;-0.80;100.00
68525;BME280;55524;51.380;13.372;2023-03-08T02:14:06;98989.66;;;-0.82;100.00
68525;BME280;55524;51.380;13.372;2023-03-08T02:16:33;98983.59;;;-0.83;100.00
68525;BME280;55524;51.380;13.372;2023-03-08T02:19:02;98991.41;;;-0.84;100.00
68525;BME280;55524;51.380;13.372;2023-03-08T02:21:30;98983.63;;;-0.84;100.00
68525;BME280;55524;51.380;13.372;2023-03-08T02:24:06;98988.84;;;-0.87;100.00
68525;BME280;55524;51.380;13.372;2023-03-08T02:26:42;98973.31;;;-0.89;100.00
68525;BME280;55524;51.380;13.372;2023-03-08T02:29:08;98976.81;;;-0.90;100.00
68525;BME280;55524;51.380;13.372;2023-03-08T02:31:34;98975.94;;;-0.92;100.00
68525;BME280;55524;51.380;13.372;2023-03-08T02:34:01;98988.97;;;-0.95;100.00
68525;BME280;55524;51.380;13.372;2023-03-08T02:36:27;98991.56;;;-0.96;100.00
68525;BME280;55524;51.380;13.372;2023-03-08T02:38:53;98992.47;;;-0.97;100.00
68525;BME280;55524;51.380;13.372;2023-03-08T02:41:19;98986.50;;;-1.03;100.00
68525;BME280;55524;51.380;13.372;2023-03-08T02:43:46;98989.94;;;-1.04;100.00
68525;BME280;55524;51.380;13.372;2023-03-08T02:46:13;98981.34;;;-1.06;100.00
68525;BME280;55524;51.380;13.372;2023-03-08T02:48:39;98961.47;;;-1.05;100.00
68525;BME280;55524;51.380;13.372;2023-03-08T02:51:06;98962.31;;;-1.05;100.00
68525;BME280;55524;51.380;13.372;2023-03-08T02:53:32;98954.47;;;-1.00;100.00
68525;BME280;55524;51.380;13.372;2023-03-08T02:55:58;98968.31;;;-1.01;100.00
68525;BME280;55524;51.380;13.372;2023-03-08T02:58:24;98978.75;;;-1.06;100.00
68525;BME280;55524;51.380;13.372;2023-03-08T03:00:51;98973.59;;;-1.09;100.00
68525;BME280;55524;51.380;13.372;2023-03-08T03:03:17;98971.06;;;-1.10;100.00
68525;BME280;55524;51.380;13.372;2023-03-08T03:05:44;98970.16;;;-1.09;100.00
68525;BME280;55524;51.380;13.372;2023-03-08T03:08:11;98976.16;;;-1.07;100.00
68525;BME280;55524;51.380;13.372;2023-03-08T03:10:38;98967.50;;;-1.05;100.00
68525;BME280;55524;51.380;13.372;2023-03-08T03:13:05;98963.91;;;-0.96;100.00
68525;BME280;55524;51.380;13.372;2023-03-08T03:15:32;98982.06;;;-0.96;100.00
68525;BME280;55524;51.380;13.372;2023-03-08T03:17:59;98988.16;;;-0.98;100.00
68525;BME280;55524;51.380;13.372;2023-03-08T03:20:25;98987.19;;;-0.93;100.00
68525;BME280;55524;51.380;13.372;2023-03-08T03:22:51;98984.63;;;-0.93;100.00
68525;BME280;55524;51.380;13.372;2023-03-08T03:25:18;98983.75;;;-0.93;100.00
68525;BME280;55524;51.380;13.372;2023-03-08T03:27:44;98992.34;;;-0.90;100.00
68525;BME280;55524;51.380;13.372;2023-03-08T03:30:11;98981.94;;;-0.87;100.00
68525;BME280;55524;51.380;13.372;2023-03-08T03:32:37;98988.88;;;-0.89;100.00
68525;BME280;55524;51.380;13.372;2023-03-08T03:35:04;98975.91;;;-0.89;100.00
68525;BME280;55524;51.380;13.372;2023-03-08T03:37:32;98982.72;;;-0.83;100.00
68525;BME280;55524;51.380;13.372;2023-03-08T03:39:58;98992.31;;;-0.88;100.00
68525;BME280;55524;51.380;13.372;2023-03-08T03:42:25;98995.88;;;-0.94;100.00
68525;BME280;55524;51.380;13.372;2023-03-08T03:44:51;98994.13;;;-0.93;100.00
68525;BME280;55524;51.380;13.372;2023-03-08T03:47:17;98990.66;;;-0.91;100.00
68525;BME280;55524;51.380;13.372;2023-03-08T03:49:43;98995.88;;;-0.94;100.00
68525;BME280;55524;51.380;13.372;2023-03-08T03:52:10;98998.44;;;-0.91;100.00
68525;BME280;55524;51.380;13.372;2023-03-08T03:54:36;99004.56;;;-0.98;100.00
68525;BME280;55524;51.380;13.372;2023-03-08T03:57:02;99011.50;;;-1.00;100.00
68525;BME280;55524;51.380;13.372;2023-03-08T03:59:29;99014.13;;;-1.02;100.00
68525;BME280;55524;51.380;13.372;2023-03-08T04:01:55;99017.50;;;-0.96;100.00
68525;BME280;55524;51.380;13.372;2023-03-08T04:04:21;99011.50;;;-1.00;100.00
68525;BME280;55524;51.380;13.372;2023-03-08T04:06:48;99012.41;;;-1.03;100.00
68525;BME280;55524;51.380;13.372;2023-03-08T04:09:16;99006.34;;;-1.02;100.00
68525;BME280;55524;51.380;13.372;2023-03-08T04:11:42;99015.88;;;-1.04;100.00
68525;BME280;55524;51.380;13.372;2023-03-08T04:14:09;99019.28;;;-1.00;100.00
68525;BME280;55524;51.380;13.372;2023-03-08T04:16:37;99015.00;;;-1.04;100.00
68525;BME280;55524;51.380;13.372;2023-03-08T04:19:07;99011.56;;;-1.05;100.00
68525;BME280;55524;51.380;13.372;2023-03-08T04:21:35;99015.00;;;-1.03;100.00
68525;BME280;55524;51.380;13.372;2023-03-08T04:24:01;99016.81;;;-1.09;100.00
68525;BME280;55524;51.380;13.372;2023-03-08T04:26:27;99022.88;;;-1.10;100.00
68525;BME280;55524;51.380;13.372;2023-03-08T04:28:54;99014.25;;;-1.12;100.00
68525;BME280;55524;51.380;13.372;2023-03-08T04:31:24;99013.34;;;-1.08;100.00
68525;BME280;55524;51.380;13.372;2023-03-08T04:33:51;99012.63;;;-1.19;100.00
68525;BME280;55524;51.380;13.372;2023-03-08T04:36:18;99002.25;;;-1.18;100.00
68525;BME280;55524;51.380;13.372;2023-03-08T04:38:45;99000.44;;;-1.13;100.00
68525;BME280;55524;51.380;13.372;2023-03-08T04:41:12;99000.47;;;-1.14;100.00
68525;BME280;55524;51.380;13.372;2023-03-08T04:43:42;99004.75;;;-1.12;100.00
68525;BME280;55524;51.380;13.372;2023-03-08T04:46:09;99008.22;;;-1.13;100.00
68525;BME280;55524;51.380;13.372;2023-03-08T04:48:35;98997.88;;;-1.16;100.00
68525;BME280;55524;51.380;13.372;2023-03-08T04:51:03;98999.69;;;-1.21;100.00
68525;BME280;55524;51.380;13.372;2023-03-08T04:53:30;98997.19;;;-1.26;100.00
68525;BME280;55524;51.380;13.372;2023-03-08T04:55:57;99001.50;;;-1.28;100.00
68525;BME280;55524;51.380;13.372;2023-03-08T04:58:26;98997.25;;;-1.32;100.00
68525;BME280;55524;51.380;13.372;2023-03-08T05:00:53;98999.00;;;-1.35;100.00
68525;BME280;55524;51.380;13.372;2023-03-08T05:03:19;98999.94;;;-1.38;100.00
68525;BME280;55524;51.380;13.372;2023-03-08T05:05:51;98995.63;;;-1.40;100.00
68525;BME280;55524;51.380;13.372;2023-03-08T05:08:18;98995.59;;;-1.39;100.00
68525;BME280;55524;51.380;13.372;2023-03-08T05:10:55;98997.34;;;-1.38;100.00
68525;BME280;55524;51.380;13.372;2023-03-08T05:13:26;99001.66;;;-1.40;100.00
68525;BME280;55524;51.380;13.372;2023-03-08T05:15:53;98995.66;;;-1.43;100.00
68525;BME280;55524;51.380;13.372;2023-03-08T05:18:20;99000.13;;;-1.55;100.00
68525;BME280;55524;51.380;13.372;2023-03-08T05:21:00;98989.81;;;-1.58;100.00
68525;BME280;55524;51.380;13.372;2023-03-08T05:23:27;98995.91;;;-1.63;100.00
68525;BME280;55524;51.380;13.372;2023-03-08T05:26:03;98995.09;;;-1.67;100.00
68525;BME280;55524;51.380;13.372;2023-03-08T05:28:31;99003.72;;;-1.65;100.00
68525;BME280;55524;51.380;13.372;2023-03-08T05:31:13;99001.09;;;-1.63;100.00
68525;BME280;55524;51.380;13.372;2023-03-08T05:33:40;99008.03;;;-1.65;100.00
68525;BME280;55524;51.380;13.372;2023-03-08T05:36:07;99008.88;;;-1.66;100.00
68525;BME280;55524;51.380;13.372;2023-03-08T05:38:35;99017.56;;;-1.70;100.00
68525;BME280;55524;51.380;13.372;2023-03-08T05:41:04;99020.22;;;-1.74;100.00
68525;BME280;55524;51.380;13.372;2023-03-08T05:43:32;99023.66;;;-1.73;100.00
68525;BME280;55524;51.380;13.372;2023-03-08T05:46:04;99019.31;;;-1.73;100.00
68525;BME280;55524;51.380;13.372;2023-03-08T05:48:32;99009.75;;;-1.67;100.00
68525;BME280;55524;51.380;13.372;2023-03-08T05:51:03;99007.16;;;-1.64;100.00
68525;BME280;55524;51.380;13.372;2023-03-08T05:53:29;99014.84;;;-1.60;100.00
68525;BME280;55524;51.380;13.372;2023-03-08T05:55:55;99012.25;;;-1.57;100.00
68525;BME280;55524;51.380;13.372;2023-03-08T05:58:22;99020.75;;;-1.47;100.00
68525;BME280;55524;51.380;13.372;2023-03-08T06:00:48;99017.25;;;-1.41;100.00
68525;BME280;55524;51.380;13.372;2023-03-08T06:03:14;99022.31;;;-1.35;100.00
68525;BME280;55524;51.380;13.372;2023-03-08T06:05:42;99009.34;;;-1.31;100.00
68525;BME280;55524;51.380;13.372;2023-03-08T06:08:08;99010.09;;;-1.22;100.00
68525;BME280;55524;51.380;13.372;2023-03-08T06:10:35;99013.38;;;-1.11;100.00
68525;BME280;55524;51.380;13.372;2023-03-08T06:13:01;99022.75;;;-1.01;100.00
68525;BME280;55524;51.380;13.372;2023-03-08T06:15:29;99020.06;;;-0.93;100.00
68525;BME280;55524;51.380;13.372;2023-03-08T06:17:55;99019.09;;;-0.86;100.00
68525;BME280;55524;51.380;13.372;2023-03-08T06:20:21;99026.75;;;-0.80;100.00
68525;BME280;55524;51.380;13.372;2023-03-08T06:22:48;99023.31;;;-0.81;100.00
68525;BME280;55524;51.380;13.372;2023-03-08T06:25:14;99025.84;;;-0.75;100.00
68525;BME280;55524;51.380;13.372;2023-03-08T06:27:40;99025.00;;;-0.75;100.00
68525;BME280;55524;51.380;13.372;2023-03-08T06:30:07;99032.72;;;-0.73;100.00
68525;BME280;55524;51.380;13.372;2023-03-08T06:32:34;99030.00;;;-0.64;100.00
68525;BME280;55524;51.380;13.372;2023-03-08T06:35:02;99019.50;;;-0.55;100.00
68525;BME280;55524;51.380;13.372;2023-03-08T06:37:32;99017.56;;;-0.44;100.00
68525;BME280;55524;51.380;13.372;2023-03-08T06:39:59;99012.19;;;-0.33;100.00
68525;BME280;55524;51.380;13.372;2023-03-08T06:42:26;99017.19;;;-0.21;100.00
68525;BME280;55524;51.380;13.372;2023-03-08T06:44:53;99018.84;;;-0.15;100.00
68525;BME280;55524;51.380;13.372;2023-03-08T06:47:19;99015.16;;;-0.04;100.00
68525;BME280;55524;51.380;13.372;2023-03-08T06:49:45;99015.22;;;-0.07;100.00
68525;BME280;55524;51.380;13.372;2023-03-08T06:52:11;99013.31;;;0.03;100.00
68525;BME280;55524;51.380;13.372;2023-03-08T06:54:38;99010.50;;;0.14;100.00
68525;BME280;55524;51.380;13.372;2023-03-08T06:57:04;99019.06;;;0.20;100.00
68525;BME280;55524;51.380;13.372;2023-03-08T06:59:30;99027.72;;;0.19;100.00
68525;BME280;55524;51.380;13.372;2023-03-08T07:01:57;99033.63;;;0.28;100.00
68525;BME280;55524;51.380;13.372;2023-03-08T07:04:23;99032.75;;;0.27;100.00
68525;BME280;55524;51.380;13.372;2023-03-08T07:06:49;99030.91;;;0.34;100.00
68525;BME280;55524;51.380;13.372;2023-03-08T07:09:16;99032.56;;;0.38;100.00
68525;BME280;55524;51.380;13.372;2023-03-08T07:11:42;99034.31;;;0.37;100.00
68525;BME280;55524;51.380;13.372;2023-03-08T07:14:09;99029.88;;;0.42;100.00
68525;BME280;55524;51.380;13.372;2023-03-08T07:16:35;99027.19;;;0.48;100.00
68525;BME280;55524;51.380;13.372;2023-03-08T07:19:02;99029.69;;;0.53;100.00
68525;BME280;55524;51.380;13.372;2023-03-08T07:21:28;99031.44;;;0.53;100.00
68525;BME280;55524;51.380;13.372;2023-03-08T07:23:55;99035.69;;;0.55;100.00
68525;BME280;55524;51.380;13.372;2023-03-08T07:26:21;99033.03;;;0.60;100.00
68525;BME280;55524;51.380;13.372;2023-03-08T07:28:53;99042.69;;;0.53;100.00
68525;BME280;55524;51.380;13.372;2023-03-08T07:31:40;99033.03;;;0.58;100.00
68525;BME280;55524;51.380;13.372;2023-03-08T07:34:07;99040.97;;;0.51;100.00
68525;BME280;55524;51.380;13.372;2023-03-08T07:36:33;99036.47;;;0.60;100.00
68525;BME280;55524;51.380;13.372;2023-03-08T07:38:59;99036.31;;;0.68;100.00
68525;BME280;55524;51.380;13.372;2023-03-08T07:41:26;99027.47;;;0.77;100.00
68525;BME280;55524;51.380;13.372;2023-03-08T07:43:55;99018.50;;;0.91;100.00
68525;BME280;55524;51.380;13.372;2023-03-08T07:46:21;99021.88;;;0.95;100.00
68525;BME280;55524;51.380;13.372;2023-03-08T07:48:48;99019.97;;;1.03;100.00
68525;BME280;55524;51.380;13.372;2023-03-08T07:51:14;99014.56;;;1.12;100.00
68525;BME280;55524;51.380;13.372;2023-03-08T07:53:40;99018.13;;;1.08;100.00
68525;BME280;55524;51.380;13.372;2023-03-08T07:56:07;99017.81;;;1.22;100.00
68525;BME280;55524;51.380;13.372;2023-03-08T07:58:33;99010.84;;;1.22;100.00
68525;BME280;55524;51.380;13.372;2023-03-08T08:01:00;99013.09;;;1.39;100.00
68525;BME280;55524;51.380;13.372;2023-03-08T08:03:28;99013.09;;;1.39;100.00
68525;BME280;55524;51.380;13.372;2023-03-08T08:05:54;99011.34;;;1.40;100.00
68525;BME280;55524;51.380;13.372;2023-03-08T08:08:21;99017.16;;;1.51;100.00
68525;BME280;55524;51.380;13.372;2023-03-08T08:10:47;99009.91;;;1.62;100.00
68525;BME280;55524;51.380;13.372;2023-03-08T08:13:13;99007.81;;;1.77;100.00
68525;BME280;55524;51.380;13.372;2023-03-08T08:15:40;98999.69;;;1.89;100.00
68525;BME280;55524;51.380;13.372;2023-03-08T08:18:06;99000.22;;;2.03;100.00
68525;BME280;55524;51.380;13.372;2023-03-08T08:20:33;99006.09;;;2.10;100.00
68525;BME280;55524;51.380;13.372;2023-03-08T08:23:00;99007.03;;;2.07;100.00
68525;BME280;55524;51.380;13.372;2023-03-08T08:25:32;99010.94;;;2.24;100.00
68525;BME280;55524;51.380;13.372;2023-03-08T08:32:05;99005.09;;;2.15;100.00
68525;BME280;55524;51.380;13.372;2023-03-08T08:34:33;99004.19;;;1.84;100.00
68525;BME280;55524;51.380;13.372;2023-03-08T08:37:00;99002.53;;;2.14;100.00
68525;BME280;55524;51.380;13.372;2023-03-08T08:39:27;99000.78;;;2.14;100.00
68525;BME280;55524;51.380;13.372;2023-03-08T08:41:54;98995.16;;;2.30;100.00
68525;BME280;55524;51.380;13.372;2023-03-08T08:44:21;98987.09;;;2.39;100.00
68525;BME280;55524;51.380;13.372;2023-03-08T08:46:47;98987.84;;;2.42;100.00
68525;BME280;55524;51.380;13.372;2023-03-08T08:49:14;98982.78;;;2.38;100.00
68525;BME280;55524;51.380;13.372;2023-03-08T08:51:40;98979.06;;;2.46;100.00
68525;BME280;55524;51.380;13.372;2023-03-08T08:54:06;98979.69;;;2.55;100.00
68525;BME280;55524;51.380;13.372;2023-03-08T08:56:33;98980.31;;;2.63;100.00
68525;BME280;55524;51.380;13.372;2023-03-08T08:59:00;98976.03;;;2.90;100.00
68525;BME280;55524;51.380;13.372;2023-03-08T09:01:30;98967.47;;;2.85;100.00
68525;BME280;55524;51.380;13.372;2023-03-08T09:03:57;98958.31;;;3.01;100.00
68525;BME280;55524;51.380;13.372;2023-03-08T09:06:26;98961.84;;;2.99;100.00
68525;BME280;55524;51.380;13.372;2023-03-08T09:08:55;98958.97;;;3.08;100.00
68525;BME280;55524;51.380;13.372;2023-03-08T09:11:22;98944.63;;;2.93;100.00
68525;BME280;55524;51.380;13.372;2023-03-08T09:13:49;98940.47;;;2.87;100.00
68525;BME280;55524;51.380;13.372;2023-03-08T09:16:27;98938.91;;;2.82;100.00
68525;BME280;55524;51.380;13.372;2023-03-08T09:18:55;98935.31;;;2.84;100.00
68525;BME280;55524;51.380;13.372;2023-03-08T09:21:22;98936.31;;;2.80;100.00
68525;BME280;55524;51.380;13.372;2023-03-08T09:23:49;98928.19;;;2.91;100.00
68525;BME280;55524;51.380;13.372;2023-03-08T09:26:16;98925.50;;;2.92;100.00
68525;BME280;55524;51.380;13.372;2023-03-08T09:28:42;98925.00;;;3.09;100.00
68525;BME280;55524;51.380;13.372;2023-03-08T09:31:11;98929.50;;;3.04;100.00
68525;BME280;55524;51.380;13.372;2023-03-08T09:33:45;98918.63;;;3.18;100.00
68525;BME280;55524;51.380;13.372;2023-03-08T09:36:12;98924.41;;;3.00;100.00
68525;BME280;55524;51.380;13.372;2023-03-08T09:38:39;98920.03;;;3.28;100.00
68525;BME280;55524;51.380;13.372;2023-03-08T09:46:32;98921.56;;;3.07;100.00
68525;BME280;55524;51.380;13.372;2023-03-08T09:49:02;98917.97;;;2.83;100.00
68525;BME280;55524;51.380;13.372;2023-03-08T09:51:35;98921.34;;;2.59;100.00
68525;BME280;55524;51.380;13.372;2023-03-08T09:54:06;98902.03;;;2.64;100.00
68525;BME280;55524;51.380;13.372;2023-03-08T09:56:49;98906.84;;;2.49;100.00
68525;BME280;55524;51.380;13.372;2023-03-08T10:05:22;98911.25;;;2.17;100.00
68525;BME280;55524;51.380;13.372;2023-03-08T10:13:49;98894.09;;;2.39;100.00
68525;BME280;55524;51.380;13.372;2023-03-08T10:16:29;98887.72;;;2.50;100.00
68525;BME280;55524;51.380;13.372;2023-03-08T10:18:59;98888.97;;;2.36;100.00
68525;BME280;55524;51.380;13.372;2023-03-08T10:21:28;98885.50;;;2.36;100.00
68525;BME280;55524;51.380;13.372;2023-03-08T10:24:20;98883.50;;;2.45;100.00
68525;BME280;55524;51.380;13.372;2023-03-08T10:26:53;98884.72;;;2.34;100.00
68525;BME280;55524;51.380;13.372;2023-03-08T10:29:20;98882.97;;;2.33;100.00
68525;BME280;55524;51.380;13.372;2023-03-08T10:31:46;98884.97;;;2.25;100.00
68525;BME280;55524;51.380;13.372;2023-03-08T10:34:20;98882.72;;;2.12;100.00
68525;BME280;55524;51.380;13.372;2023-03-08T10:37:02;98882.50;;;1.89;100.00
68525;BME280;55524;51.380;13.372;2023-03-08T10:39:29;98878.63;;;2.04;100.00
68525;BME280;55524;51.380;13.372;2023-03-08T10:41:59;98870.75;;;2.05;100.00
68525;BME280;55524;51.380;13.372;2023-03-08T10:52:28;98850.91;;;2.01;100.00
68525;BME280;55524;51.380;13.372;2023-03-08T10:55:08;98851.31;;;1.86;100.00
68525;BME280;55524;51.380;13.372;2023-03-08T10:57:35;98841.19;;;1.77;100.00
68525;BME280;55524;51.380;13.372;2023-03-08T11:00:27;98836.03;;;1.73;100.00
68525;BME280;55524;51.380;13.372;2023-03-08T11:03:17;98834.75;;;1.57;100.00
68525;BME280;55524;51.380;13.372;2023-03-08T11:06:05;98829.47;;;1.60;100.00
68525;BME280;55524;51.380;13.372;2023-03-08T11:08:39;98820.75;;;1.63;100.00
68525;BME280;55524;51.380;13.372;2023-03-08T11:11:11;98816.69;;;1.84;100.00
68525;BME280;55524;51.380;13.372;2023-03-08T11:13:40;98805.91;;;1.96;100.00
68525;BME280;55524;51.380;13.372;2023-03-08T11:24:38;98792.25;;;1.88;100.00
68525;BME280;55524;51.380;13.372;2023-03-08T11:35:36;98755.25;;;1.77;100.00
68525;BME280;55524;51.380;13.372;2023-03-08T11:38:28;98752.03;;;1.98;100.00
68525;BME280;55524;51.380;13.372;2023-03-08T11:44:13;98736.13;;;1.78;100.00
68525;BME280;55524;51.380;13.372;2023-03-08T11:48:05;98725.75;;;1.76;100.00
68525;BME280;55524;51.380;13.372;2023-03-08T11:55:48;98705.66;;;1.52;100.00
68525;BME280;55524;51.380;13.372;2023-03-08T12:01:24;98704.03;;;1.47;100.00
68525;BME280;55524;51.380;13.372;2023-03-08T12:03:53;98695.81;;;1.32;100.00
68525;BME280;55524;51.380;13.372;2023-03-08T12:06:25;98689.22;;;1.50;100.00
68525;BME280;55524;51.380;13.372;2023-03-08T12:11:46;98677.34;;;1.41;100.00
68525;BME280;55524;51.380;13.372;2023-03-08T12:14:25;98673.16;;;1.35;100.00
68525;BME280;55524;51.380;13.372;2023-03-08T12:19:40;98665.34;;;1.65;100.00
68525;BME280;55524;51.380;13.372;2023-03-08T12:32:57;98654.91;;;1.66;100.00
68525;BME280;55524;51.380;13.372;2023-03-08T12:35:34;98658.13;;;1.75;100.00
68525;BME280;55524;51.380;13.372;2023-03-08T12:38:03;98647.09;;;1.66;100.00
68525;BME280;55524;51.380;13.372;2023-03-08T12:40:34;98646.16;;;1.39;100.00
68525;BME280;55524;51.380;13.372;2023-03-08T12:43:13;98656.44;;;1.72;100.00
68525;BME280;55524;51.380;13.372;2023-03-08T12:45:59;98654.63;;;1.74;100.00
68525;BME280;55524;51.380;13.372;2023-03-08T13:01:36;98653.22;;;1.64;100.00
68525;BME280;55524;51.380;13.372;2023-03-08T13:11:55;98649.63;;;1.38;100.00
68525;BME280;55524;51.380;13.372;2023-03-08T13:14:44;98648.91;;;1.35;100.00
68525;BME280;55524;51.380;13.372;2023-03-08T13:20:18;98640.72;;;1.17;100.00
68525;BME280;55524;51.380;13.372;2023-03-08T13:28:26;98642.25;;;1.25;100.00
68525;BME280;55524;51.380;13.372;2023-03-08T13:31:02;98640.84;;;0.83;100.00
68525;BME280;55524;51.380;13.372;2023-03-08T13:33:32;98639.16;;;1.12;100.00
68525;BME280;55524;51.380;13.372;2023-03-08T13:36:06;98634.75;;;1.14;100.00
68525;BME280;55524;51.380;13.372;2023-03-08T13:38:35;98628.63;;;1.16;100.00
68525;BME280;55524;51.380;13.372;2023-03-08T13:41:02;98631.31;;;1.13;100.00
68525;BME280;55524;51.380;13.372;2023-03-08T13:43:32;98631.09;;;1.21;100.00
68525;BME280;55524;51.380;13.372;2023-03-08T13:46:01;98629.25;;;1.25;100.00
68525;BME280;55524;51.380;13.372;2023-03-08T13:48:31;98630.78;;;1.32;100.00
68525;BME280;55524;51.380;13.372;2023-03-08T13:50:58;98622.06;;;1.03;100.00
68525;BME280;55524;51.380;13.372;2023-03-08T13:53:27;98623.78;;;1.03;100.00
68525;BME280;55524;51.380;13.372;2023-03-08T13:55:57;98614.84;;;1.13;100.00
68525;BME280;55524;51.380;13.372;2023-03-08T14:01:13;98611.91;;;0.94;100.00
68525;BME280;55524;51.380;13.372;2023-03-08T14:03:40;98603.00;;;1.03;100.00
68525;BME280;55524;51.380;13.372;2023-03-08T14:06:22;98602.41;;;1.22;100.00
68525;BME280;55524;51.380;13.372;2023-03-08T14:08:50;98597.75;;;1.34;100.00
68525;BME280;55524;51.380;13.372;2023-03-08T14:11:23;98602.06;;;1.35;100.00
68525;BME280;55524;51.380;13.372;2023-03-08T14:13:53;98595.88;;;1.39;100.00
68525;BME280;55524;51.380;13.372;2023-03-08T14:16:27;98595.06;;;1.37;100.00
68525;BME280;55524;51.380;13.372;2023-03-08T14:18:55;98595.25;;;1.31;100.00
68525;BME280;55524;51.380;13.372;2023-03-08T14:21:26;98582.03;;;1.37;100.00
68525;BME280;55524;51.380;13.372;2023-03-08T14:23:55;98582.59;;;1.18;100.00
68525;BME280;55524;51.380;13.372;2023-03-08T14:26:36;98591.84;;;0.99;100.00
68525;BME280;55524;51.380;13.372;2023-03-08T14:31:36;98574.06;;;1.15;100.00
68525;BME280;55524;51.380;13.372;2023-03-08T14:34:15;98567.75;;;1.22;100.00
68525;BME280;55524;51.380;13.372;2023-03-08T14:36:52;98561.38;;;1.03;100.00
68525;BME280;55524;51.380;13.372;2023-03-08T14:39:19;98553.56;;;1.03;100.00
68525;BME280;55524;51.380;13.372;2023-03-08T14:41:46;98548.50;;;1.00;100.00
68525;BME280;55524;51.380;13.372;2023-03-08T14:44:20;98550.91;;;1.06;100.00
68525;BME280;55524;51.380;13.372;2023-03-08T14:46:47;98547.38;;;1.08;100.00
68525;BME280;55524;51.380;13.372;2023-03-08T14:49:23;98543.84;;;1.09;100.00